createdAt,value
2023-04-19T00:00:18.311Z,1002.21
2023-04-19T00:01:18.294Z,1002.16
2023-04-19T00:02:18.410Z,1002.26
2023-04-19T00:03:18.437Z,1002.23
2023-04-19T00:04:18.547Z,1002.24
2023-04-19T00:05:18.270Z,1002.21
2023-04-19T00:06:18.252Z,1002.19
2023-04-19T00:07:18.265Z,1002.20
2023-04-19T00:08:18.232Z,1002.19
2023-04-19T00:09:18.230Z,1002.09
2023-04-19T00:10:18.223Z,1002.06
2023-04-19T00:11:18.217Z,1002.08
2023-04-19T00:12:18.239Z,1002.07
2023-04-19T00:13:18.199Z,1002.03
2023-04-19T00:14:18.449Z,1002.03
2023-04-19T00:15:18.187Z,1002.06
2023-04-19T00:16:18.221Z,1002.03
2023-04-19T00:17:18.198Z,1001.96
2023-04-19T00:18:18.160Z,1002.07
2023-04-19T00:19:18.143Z,1001.99
2023-04-19T00:20:18.152Z,1002.00
2023-04-19T00:21:18.148Z,1002.04
2023-04-19T00:22:18.165Z,1001.97
2023-04-19T00:23:18.126Z,1001.91
2023-04-19T00:24:18.129Z,1001.94
2023-04-19T00:25:18.117Z,1001.95
2023-04-19T00:26:18.120Z,1001.97
2023-04-19T00:27:18.122Z,1001.96
2023-04-19T00:28:18.085Z,1001.94
2023-04-19T00:29:18.086Z,1001.98
2023-04-19T00:30:18.073Z,1002.00
2023-04-19T00:31:18.104Z,1001.89
2023-04-19T00:32:18.076Z,1001.93
2023-04-19T00:33:18.044Z,1001.85
2023-04-19T00:34:18.043Z,1001.83
2023-04-19T00:35:19.038Z,1001.87
2023-04-19T00:36:18.021Z,1001.86
2023-04-19T00:37:18.043Z,1001.86
2023-04-19T00:38:18.007Z,1001.82
2023-04-19T00:39:18.004Z,1001.86
2023-04-19T00:40:17.993Z,1001.75
2023-04-19T00:41:17.978Z,1001.85
2023-04-19T00:42:17.999Z,1001.83
2023-04-19T00:43:17.974Z,1001.83
2023-04-19T00:44:17.954Z,1001.84
2023-04-19T00:45:17.943Z,1001.75
2023-04-19T00:46:18.012Z,1001.69
2023-04-19T00:47:17.955Z,1001.77
2023-04-19T00:48:17.933Z,1001.77
2023-04-19T00:49:17.917Z,1001.77
2023-04-19T00:50:17.918Z,1001.80
2023-04-19T00:51:17.909Z,1001.76
2023-04-19T00:52:17.937Z,1001.81
2023-04-19T00:53:17.885Z,1001.85
2023-04-19T00:54:17.882Z,1001.74
2023-04-19T00:55:17.888Z,1001.82
2023-04-19T00:56:17.871Z,1001.81
2023-04-19T00:57:17.890Z,1001.78
2023-04-19T00:58:17.874Z,1001.72
2023-04-19T00:59:17.830Z,1001.69
2023-04-19T01:00:18.834Z,1001.71
2023-04-19T01:01:17.867Z,1001.75
2023-04-19T01:02:17.905Z,1001.71
2023-04-19T01:03:17.896Z,1001.78
2023-04-19T01:04:18.008Z,1001.67
2023-04-19T01:05:17.797Z,1001.71
2023-04-19T01:06:17.796Z,1001.68
2023-04-19T01:07:17.910Z,1001.71
2023-04-19T01:08:17.776Z,1001.70
2023-04-19T01:09:17.762Z,1001.69
2023-04-19T01:10:17.758Z,1001.66
2023-04-19T01:11:17.744Z,1001.68
2023-04-19T01:12:17.761Z,1001.73
2023-04-19T01:13:17.731Z,1001.64
2023-04-19T01:14:17.876Z,1001.63
2023-04-19T01:15:17.710Z,1001.67
2023-04-19T01:16:17.774Z,1001.69
2023-04-19T01:17:17.715Z,1001.66
2023-04-19T01:18:17.701Z,1001.65
2023-04-19T01:19:17.685Z,1001.65
2023-04-19T01:20:17.679Z,1001.66
2023-04-19T01:21:17.669Z,1001.65
2023-04-19T01:22:17.691Z,1001.62
2023-04-19T01:23:17.648Z,1001.60
2023-04-19T01:24:17.753Z,1001.64
2023-04-19T01:25:17.627Z,1001.63
2023-04-19T01:26:17.616Z,1001.59
2023-04-19T01:27:17.644Z,1001.56
2023-04-19T01:28:17.612Z,1001.57
2023-04-19T01:29:17.611Z,1001.60
2023-04-19T01:30:17.593Z,1001.61
2023-04-19T01:31:17.623Z,1001.57
2023-04-19T01:32:17.606Z,1001.55
2023-04-19T01:33:17.574Z,1001.55
2023-04-19T01:34:17.567Z,1001.62
2023-04-19T01:35:17.576Z,1001.57
2023-04-19T01:36:17.553Z,1001.53
2023-04-19T01:37:17.567Z,1001.52
2023-04-19T01:38:17.531Z,1001.50
2023-04-19T01:39:17.522Z,1001.57
2023-04-19T01:40:17.513Z,1001.58
2023-04-19T01:41:17.517Z,1001.53
2023-04-19T01:42:17.569Z,1001.47
2023-04-19T01:43:17.518Z,1001.52
2023-04-19T01:44:17.579Z,1001.50
2023-04-19T01:45:17.474Z,1001.49
2023-04-19T01:46:17.549Z,1001.55
2023-04-19T01:47:17.506Z,1001.57
2023-04-19T01:48:17.458Z,1001.54
2023-04-19T01:49:17.460Z,1001.54
2023-04-19T01:50:17.455Z,1001.50
2023-04-19T01:51:17.447Z,1001.48
2023-04-19T01:52:17.462Z,1001.55
2023-04-19T01:53:17.475Z,1001.56
2023-04-19T01:54:17.612Z,1001.58
2023-04-19T01:55:17.421Z,1001.41
2023-04-19T01:56:17.403Z,1001.49
2023-04-19T01:57:17.431Z,1001.50
2023-04-19T01:58:17.388Z,1001.51
2023-04-19T01:59:17.373Z,1001.49
2023-04-19T02:00:17.366Z,1001.47
2023-04-19T02:01:17.375Z,1001.39
2023-04-19T02:02:17.410Z,1001.45
2023-04-19T02:03:17.621Z,1001.41
2023-04-19T02:04:17.665Z,1001.43
2023-04-19T02:05:17.330Z,1001.43
2023-04-19T02:06:17.326Z,1001.39
2023-04-19T02:07:17.319Z,1001.42
2023-04-19T02:08:17.334Z,1001.43
2023-04-19T02:09:17.317Z,1001.44
2023-04-19T02:10:17.293Z,1001.45
2023-04-19T02:11:17.279Z,1001.36
2023-04-19T02:12:17.281Z,1001.43
2023-04-19T02:13:17.292Z,1001.37
2023-04-19T02:14:17.473Z,1001.34
2023-04-19T02:15:17.259Z,1001.39
2023-04-19T02:16:17.291Z,1001.36
2023-04-19T02:17:17.252Z,1001.34
2023-04-19T02:18:17.257Z,1001.34
2023-04-19T02:19:17.226Z,1001.31
2023-04-19T02:20:17.241Z,1001.33
2023-04-19T02:21:17.211Z,1001.32
2023-04-19T02:22:17.216Z,1001.29
2023-04-19T02:23:17.221Z,1001.30
2023-04-19T02:24:17.491Z,1001.28
2023-04-19T02:25:17.179Z,1001.33
2023-04-19T02:26:17.175Z,1001.30
2023-04-19T02:27:17.171Z,1001.36
2023-04-19T02:28:17.179Z,1001.30
2023-04-19T02:29:17.142Z,1001.34
2023-04-19T02:30:17.141Z,1001.34
2023-04-19T02:31:17.164Z,1001.29
2023-04-19T02:32:18.124Z,1001.30
2023-04-19T02:33:17.147Z,1001.28
2023-04-19T02:34:17.371Z,1001.28
2023-04-19T02:35:17.116Z,1001.22
2023-04-19T02:36:17.093Z,1001.25
2023-04-19T02:37:17.078Z,1001.23
2023-04-19T02:38:17.102Z,1001.24
2023-04-19T02:39:17.072Z,1001.25
2023-04-19T02:40:17.061Z,1001.18
2023-04-19T02:41:17.100Z,1001.22
2023-04-19T02:42:17.049Z,1001.27
2023-04-19T02:43:17.070Z,1001.28
2023-04-19T02:44:17.185Z,1001.28
2023-04-19T02:45:17.019Z,1001.21
2023-04-19T02:46:17.035Z,1001.22
2023-04-19T02:47:17.027Z,1001.20
2023-04-19T02:48:16.994Z,1001.26
2023-04-19T02:49:17.000Z,1001.20
2023-04-19T02:50:16.980Z,1001.21
2023-04-19T02:51:16.993Z,1001.19
2023-04-19T02:52:17.006Z,1001.23
2023-04-19T02:53:16.951Z,1001.24
2023-04-19T02:54:17.135Z,1001.23
2023-04-19T02:55:16.943Z,1001.14
2023-04-19T02:56:16.935Z,1001.19
2023-04-19T02:57:16.958Z,1001.13
2023-04-19T02:58:16.911Z,1001.16
2023-04-19T02:59:16.907Z,1001.17
2023-04-19T03:00:16.896Z,1001.16
2023-04-19T03:01:16.934Z,1001.25
2023-04-19T03:02:16.898Z,1001.11
2023-04-19T03:03:16.955Z,1001.14
2023-04-19T03:04:17.111Z,1001.10
2023-04-19T03:05:16.869Z,1001.14
2023-04-19T03:06:17.860Z,1001.02
2023-04-19T03:07:16.846Z,1001.15
2023-04-19T03:08:16.863Z,1001.08
2023-04-19T03:09:16.832Z,1001.11
2023-04-19T03:10:16.829Z,1001.07
2023-04-19T03:11:16.827Z,1001.05
2023-04-19T03:12:16.801Z,1001.06
2023-04-19T03:13:16.821Z,1001.14
2023-04-19T03:14:16.963Z,1001.13
2023-04-19T03:15:16.778Z,1001.04
2023-04-19T03:16:16.832Z,1001.19
2023-04-19T03:17:16.779Z,1001.11
2023-04-19T03:18:16.781Z,1001.12
2023-04-19T03:19:16.752Z,1001.10
2023-04-19T03:20:16.741Z,1001.12
2023-04-19T03:21:16.737Z,1001.15
2023-04-19T03:22:16.720Z,1001.13
2023-04-19T03:23:16.731Z,1001.07
2023-04-19T03:24:16.875Z,1001.03
2023-04-19T03:25:16.695Z,1001.04
2023-04-19T03:26:16.691Z,1001.02
2023-04-19T03:27:16.692Z,1001.03
2023-04-19T03:28:16.706Z,1001.05
2023-04-19T03:29:16.671Z,1001.03
2023-04-19T03:30:16.664Z,1001.05
2023-04-19T03:31:16.686Z,1001.04
2023-04-19T03:32:16.641Z,1001.08
2023-04-19T03:33:16.673Z,1001.08
2023-04-19T03:34:16.780Z,1001.02
2023-04-19T03:35:16.614Z,1001.07
2023-04-19T03:36:16.625Z,1001.05
2023-04-19T03:37:16.611Z,1001.02
2023-04-19T03:38:16.644Z,1001.05
2023-04-19T03:39:16.588Z,1001.05
2023-04-19T03:40:16.586Z,1001.03
2023-04-19T03:41:16.571Z,1001.03
2023-04-19T03:42:16.572Z,1001.04
2023-04-19T03:43:16.585Z,1000.94
2023-04-19T03:44:16.728Z,1000.96
2023-04-19T03:45:16.543Z,1000.95
2023-04-19T03:46:16.573Z,1000.91
2023-04-19T03:47:16.521Z,1000.87
2023-04-19T03:48:16.541Z,1000.94
2023-04-19T03:49:16.514Z,1000.95
2023-04-19T03:50:16.499Z,1000.96
2023-04-19T03:51:16.488Z,1000.93
2023-04-19T03:52:16.487Z,1000.93
2023-04-19T03:53:16.502Z,1000.91
2023-04-19T03:54:16.638Z,1000.87
2023-04-19T03:55:16.481Z,1000.91
2023-04-19T03:56:16.446Z,1000.92
2023-04-19T03:57:16.445Z,1000.90
2023-04-19T03:58:16.461Z,1000.88
2023-04-19T03:59:16.426Z,1000.87
2023-04-19T04:00:16.420Z,1000.83
2023-04-19T04:01:17.412Z,1001.02
2023-04-19T04:02:16.484Z,1000.89
2023-04-19T04:03:16.696Z,1000.90
2023-04-19T04:04:16.701Z,1000.81
2023-04-19T04:05:16.460Z,1000.84
2023-04-19T04:06:16.365Z,1000.86
2023-04-19T04:07:16.369Z,1000.94
2023-04-19T04:08:16.390Z,1000.85
2023-04-19T04:09:16.342Z,1000.99
2023-04-19T04:10:16.340Z,1000.98
2023-04-19T04:11:16.326Z,1000.97
2023-04-19T04:12:16.330Z,1000.95
2023-04-19T04:13:16.345Z,1000.98
2023-04-19T04:14:16.432Z,1001.05
2023-04-19T04:15:16.304Z,1001.02
2023-04-19T04:16:16.320Z,1001.01
2023-04-19T04:17:16.284Z,1001.12
2023-04-19T04:18:16.322Z,1000.99
2023-04-19T04:19:16.267Z,1001.07
2023-04-19T04:20:16.250Z,1001.07
2023-04-19T04:21:16.249Z,1001.20
2023-04-19T04:22:16.238Z,1001.07
2023-04-19T04:23:16.345Z,1001.11
2023-04-19T04:24:16.355Z,1001.20
2023-04-19T04:25:16.211Z,1001.19
2023-04-19T04:26:16.204Z,1001.09
2023-04-19T04:27:16.222Z,1001.14
2023-04-19T04:28:16.228Z,1001.11
2023-04-19T04:29:16.192Z,1001.14
2023-04-19T04:30:16.188Z,1001.12
2023-04-19T04:31:16.222Z,1001.18
2023-04-19T04:32:16.176Z,1001.15
2023-04-19T04:33:16.195Z,1001.21
2023-04-19T04:34:16.472Z,1001.15
2023-04-19T04:35:16.142Z,1001.10
2023-04-19T04:36:16.137Z,1001.11
2023-04-19T04:37:16.137Z,1001.15
2023-04-19T04:38:23.985Z,1001.15
2023-04-19T04:39:18.253Z,1001.17
2023-04-19T04:40:16.128Z,1001.18
2023-04-19T04:41:16.144Z,1001.07
2023-04-19T04:42:16.113Z,1001.15
2023-04-19T04:43:16.161Z,1001.12
2023-04-19T04:44:16.084Z,1001.14
2023-04-19T04:45:16.088Z,1001.22
2023-04-19T04:46:16.108Z,1001.15
2023-04-19T04:47:16.069Z,1001.21
2023-04-19T04:48:16.075Z,1001.23
2023-04-19T04:49:16.045Z,1001.19
2023-04-19T04:50:16.035Z,1001.14
2023-04-19T04:51:16.024Z,1001.18
2023-04-19T04:52:16.027Z,1001.14
2023-04-19T04:53:16.045Z,1001.13
2023-04-19T04:54:16.130Z,1001.11
2023-04-19T04:55:16.015Z,1001.15
2023-04-19T04:56:16.016Z,1001.10
2023-04-19T04:57:15.984Z,1001.26
2023-04-19T04:58:16.547Z,1001.15
2023-04-19T04:59:15.963Z,1001.07
2023-04-19T05:00:15.952Z,1001.13
2023-04-19T05:01:16.047Z,1001.03
2023-04-19T05:02:15.973Z,1001.21
2023-04-19T05:03:15.987Z,1001.21
2023-04-19T05:04:16.085Z,1001.19
2023-04-19T05:05:15.917Z,1001.12
2023-04-19T05:06:15.912Z,1001.17
2023-04-19T05:07:15.896Z,1001.14
2023-04-19T05:08:15.916Z,1001.24
2023-04-19T05:09:15.885Z,1001.17
2023-04-19T05:10:15.877Z,1001.24
2023-04-19T05:11:15.931Z,1001.18
2023-04-19T05:12:16.863Z,1001.14
2023-04-19T05:13:16.009Z,1001.21
2023-04-19T05:14:16.075Z,1001.20
2023-04-19T05:15:15.870Z,1001.19
2023-04-19T05:16:15.852Z,1001.08
2023-04-19T05:17:15.811Z,1001.09
2023-04-19T05:18:15.850Z,1001.20
2023-04-19T05:19:15.804Z,1001.24
2023-04-19T05:20:15.802Z,1001.22
2023-04-19T05:21:15.802Z,1001.23
2023-04-19T05:22:15.776Z,1001.20
2023-04-19T05:23:15.770Z,1001.17
2023-04-19T05:24:16.025Z,1001.18
2023-04-19T05:25:15.753Z,1001.21
2023-04-19T05:26:15.748Z,1001.27
2023-04-19T05:27:15.737Z,1001.25
2023-04-19T05:28:15.741Z,1001.30
2023-04-19T05:29:15.746Z,1001.19
2023-04-19T05:30:15.725Z,1001.19
2023-04-19T05:31:15.721Z,1001.24
2023-04-19T05:32:15.694Z,1001.17
2023-04-19T05:33:15.686Z,1001.24
2023-04-19T05:34:15.960Z,1001.22
2023-04-19T05:35:15.673Z,1001.25
2023-04-19T05:36:15.669Z,1001.20
2023-04-19T05:37:15.657Z,1001.14
2023-04-19T05:38:15.651Z,1001.25
2023-04-19T05:39:15.683Z,1001.24
2023-04-19T05:40:15.636Z,1001.26
2023-04-19T05:41:15.622Z,1001.18
2023-04-19T05:42:16.649Z,1001.17
2023-04-19T05:43:15.611Z,1001.16
2023-04-19T05:44:15.850Z,1001.26
2023-04-19T05:45:15.626Z,1001.18
2023-04-19T05:46:15.611Z,1001.19
2023-04-19T05:47:15.581Z,1001.19
2023-04-19T05:48:15.568Z,1001.23
2023-04-19T05:49:16.628Z,1001.16
2023-04-19T05:50:15.583Z,1001.21
2023-04-19T05:51:15.568Z,1001.20
2023-04-19T05:52:15.550Z,1001.23
2023-04-19T05:53:15.539Z,1001.17
2023-04-19T05:54:15.948Z,1001.21
2023-04-19T05:55:15.520Z,1001.16
2023-04-19T05:56:16.529Z,1001.13
2023-04-19T05:57:15.506Z,1001.12
2023-04-19T05:58:15.505Z,1001.06
2023-04-19T05:59:15.521Z,1001.08
2023-04-19T06:00:15.490Z,1001.08
2023-04-19T06:01:15.480Z,1001.08
2023-04-19T06:02:15.542Z,1001.07
2023-04-19T06:03:15.778Z,1001.10
2023-04-19T06:04:16.031Z,1001.09
2023-04-19T06:05:15.516Z,1001.15
2023-04-19T06:06:15.529Z,1001.17
2023-04-19T06:07:27.409Z,1001.15
2023-04-19T06:08:17.442Z,1001.13
2023-04-19T06:09:15.437Z,1001.16
2023-04-19T06:10:15.414Z,1001.13
2023-04-19T06:11:24.887Z,1001.22
2023-04-19T06:12:17.382Z,1001.14
2023-04-19T06:13:15.397Z,1001.12
2023-04-19T06:14:15.641Z,1001.11
2023-04-19T06:15:15.386Z,1001.09
2023-04-19T06:16:15.401Z,1001.04
2023-04-19T06:17:15.350Z,1001.05
2023-04-19T06:18:19.698Z,1001.08
2023-04-19T06:19:16.358Z,1001.07
2023-04-19T06:20:15.333Z,1001.05
2023-04-19T06:21:15.322Z,1000.91
2023-04-19T06:22:15.311Z,1001.17
2023-04-19T06:23:15.452Z,1001.11
2023-04-19T06:24:15.499Z,1001.19
2023-04-19T06:25:15.283Z,1001.24
2023-04-19T06:26:15.275Z,1001.19
2023-04-19T06:27:15.264Z,1001.14
2023-04-19T06:28:15.264Z,1001.15
2023-04-19T06:29:15.278Z,1001.11
2023-04-19T06:30:15.278Z,1001.18
2023-04-19T06:31:15.255Z,1001.15
2023-04-19T06:32:15.231Z,1001.32
2023-04-19T06:33:15.222Z,1001.24
2023-04-19T06:34:15.578Z,1001.14
2023-04-19T06:35:15.220Z,1001.21
2023-04-19T06:36:15.197Z,1001.15
2023-04-19T06:37:15.200Z,1001.11
2023-04-19T06:38:15.189Z,1001.13
2023-04-19T06:39:15.203Z,1001.22
2023-04-19T06:40:15.170Z,1001.13
2023-04-19T06:41:15.170Z,1001.17
2023-04-19T06:42:15.148Z,1001.15
2023-04-19T06:43:15.145Z,1001.13
2023-04-19T06:44:15.491Z,1001.28
2023-04-19T06:45:15.131Z,1001.31
2023-04-19T06:46:15.157Z,1001.23
2023-04-19T06:47:15.142Z,1001.22
2023-04-19T06:48:15.112Z,1001.26
2023-04-19T06:49:15.131Z,1001.22
2023-04-19T06:50:15.089Z,1001.22
2023-04-19T06:51:15.093Z,1001.26
2023-04-19T06:52:15.075Z,1001.15
2023-04-19T06:53:15.074Z,1001.28
2023-04-19T06:54:15.099Z,1001.21
2023-04-19T06:55:15.050Z,1001.24
2023-04-19T06:56:15.057Z,1001.12
2023-04-19T06:57:15.057Z,1001.21
2023-04-19T06:58:15.038Z,1001.24
2023-04-19T06:59:15.050Z,1001.18
2023-04-19T07:00:15.024Z,1001.30
2023-04-19T07:01:15.046Z,1001.20
2023-04-19T07:02:15.064Z,1001.29
2023-04-19T07:03:15.178Z,1001.20
2023-04-19T07:04:15.726Z,1001.26
2023-04-19T07:05:14.977Z,1001.23
2023-04-19T07:06:14.958Z,1001.15
2023-04-19T07:07:14.969Z,1001.21
2023-04-19T07:08:14.948Z,1001.19
2023-04-19T07:09:14.962Z,1001.18
2023-04-19T07:10:14.930Z,1001.17
2023-04-19T07:11:14.918Z,1001.26
2023-04-19T07:12:14.913Z,1001.18
2023-04-19T07:13:14.907Z,1001.24
2023-04-19T07:14:15.252Z,1001.23
2023-04-19T07:15:14.897Z,1001.28
2023-04-19T07:16:14.986Z,1001.25
2023-04-19T07:17:14.872Z,1001.27
2023-04-19T07:18:14.868Z,1001.26
2023-04-19T07:19:14.891Z,1001.26
2023-04-19T07:20:14.867Z,1001.35
2023-04-19T07:21:14.852Z,1001.35
2023-04-19T07:22:15.269Z,1001.30
2023-04-19T07:23:15.824Z,1001.28
2023-04-19T07:24:14.958Z,1001.29
2023-04-19T07:25:15.877Z,1001.14
2023-04-19T07:26:14.801Z,1001.25
2023-04-19T07:27:15.019Z,1001.31
2023-04-19T07:28:14.781Z,1001.25
2023-04-19T07:29:14.773Z,1001.29
2023-04-19T07:30:14.789Z,1001.32
2023-04-19T07:31:14.763Z,1001.25
2023-04-19T07:32:14.785Z,1001.38
2023-04-19T07:33:14.779Z,1001.24
2023-04-19T07:34:14.985Z,1001.23
2023-04-19T07:35:14.841Z,1001.19
2023-04-19T07:36:14.721Z,1001.10
2023-04-19T07:37:14.717Z,1001.14
2023-04-19T07:38:14.697Z,1001.19
2023-04-19T07:39:14.695Z,1001.16
2023-04-19T07:40:14.734Z,1001.12
2023-04-19T07:41:14.684Z,1001.27
2023-04-19T07:42:14.675Z,1001.04
2023-04-19T07:43:14.660Z,1001.03
2023-04-19T07:44:15.074Z,1001.14
2023-04-19T07:45:14.665Z,1001.19
2023-04-19T07:46:14.655Z,1001.05
2023-04-19T07:47:14.633Z,1001.08
2023-04-19T07:48:14.627Z,1001.06
2023-04-19T07:49:14.607Z,1001.12
2023-04-19T07:50:14.630Z,1001.08
2023-04-19T07:51:14.601Z,1001.17
2023-04-19T07:52:14.589Z,1001.15
2023-04-19T07:53:14.580Z,1000.97
2023-04-19T07:54:14.940Z,1000.99
2023-04-19T07:55:14.592Z,1001.10
2023-04-19T07:56:14.555Z,1000.98
2023-04-19T07:57:14.545Z,1001.01
2023-04-19T07:58:14.535Z,1001.09
2023-04-19T07:59:14.524Z,1001.09
2023-04-19T08:00:14.553Z,1001.29
2023-04-19T08:01:14.528Z,1001.01
2023-04-19T08:02:14.654Z,1001.04
2023-04-19T08:03:14.639Z,1001.07
2023-04-19T08:04:14.660Z,1001.05
2023-04-19T08:05:15.623Z,1001.10
2023-04-19T08:06:14.473Z,1001.10
2023-04-19T08:07:14.466Z,1001.03
2023-04-19T08:08:14.452Z,1001.06
2023-04-19T08:09:14.528Z,1000.99
2023-04-19T08:10:14.479Z,1000.98
2023-04-19T08:11:14.537Z,1001.06
2023-04-19T08:12:23.101Z,1001.09
2023-04-19T08:13:16.412Z,1000.92
2023-04-19T08:14:27.120Z,1001.05
2023-04-19T08:16:41.874Z,1001.04
2023-04-19T08:17:23.830Z,1000.93
2023-04-19T08:18:16.417Z,1000.98
2023-04-19T08:19:14.374Z,1000.99
2023-04-19T08:20:14.399Z,1000.83
2023-04-19T08:21:14.357Z,1000.95
2023-04-19T08:22:14.349Z,1000.93
2023-04-19T08:23:21.530Z,1000.87
2023-04-19T08:24:16.504Z,1000.87
2023-04-19T08:25:14.355Z,1000.89
2023-04-19T08:26:14.317Z,1000.97
2023-04-19T08:27:14.313Z,1000.89
2023-04-19T08:28:14.307Z,1000.98
2023-04-19T08:29:14.303Z,1000.91
2023-04-19T08:30:14.313Z,1000.81
2023-04-19T08:31:14.287Z,1000.96
2023-04-19T08:32:14.323Z,1000.78
2023-04-19T08:33:14.288Z,1000.85
2023-04-19T08:34:14.280Z,1000.84
2023-04-19T08:35:14.279Z,1000.87
2023-04-19T08:36:17.053Z,1000.84
2023-04-19T08:37:15.239Z,1000.89
2023-04-19T08:38:14.236Z,1000.81
2023-04-19T08:39:24.810Z,1000.99
2023-04-19T08:40:16.246Z,1000.78
2023-04-19T08:41:14.213Z,1000.83
2023-04-19T08:42:32.474Z,1000.94
2023-04-19T08:43:16.191Z,1001.04
2023-04-19T08:46:16.205Z,1000.84
2023-04-19T08:47:23.557Z,1000.99
2023-04-19T08:48:16.235Z,1000.87
2023-04-19T08:49:14.412Z,1000.91
2023-04-19T08:50:28.356Z,1000.97
2023-04-19T08:51:16.140Z,1000.89
2023-04-19T08:52:14.117Z,1000.84
2023-04-19T08:53:24.917Z,1000.88
2023-04-19T08:54:16.116Z,1000.92
2023-04-19T08:55:14.119Z,1000.88
2023-04-19T08:56:21.195Z,1000.84
2023-04-19T08:57:16.073Z,1000.88
2023-04-19T08:58:28.495Z,1000.82
2023-04-19T08:59:18.565Z,1000.77
2023-04-19T09:00:15.079Z,1000.94
2023-04-19T09:01:26.152Z,1000.76
2023-04-19T09:02:16.182Z,1000.64
2023-04-19T09:03:14.188Z,1000.77
2023-04-19T09:05:15.286Z,1000.81
2023-04-19T09:06:14.140Z,1000.71
2023-04-19T09:07:13.995Z,1000.74
2023-04-19T09:08:14.408Z,1000.75
2023-04-19T09:09:28.448Z,1000.74
2023-04-19T09:10:15.996Z,1000.88
2023-04-19T09:11:13.971Z,1000.74
2023-04-19T09:12:13.952Z,1000.78
2023-04-19T09:13:13.954Z,1000.32
2023-04-19T09:14:13.949Z,1000.61
2023-04-19T09:15:13.957Z,1000.76
2023-04-19T09:16:13.988Z,1000.57
2023-04-19T09:17:14.882Z,1000.55
2023-04-19T09:18:13.916Z,1000.76
2023-04-19T09:20:14.920Z,1000.54
2023-04-19T09:21:13.884Z,1000.53
2023-04-19T09:22:13.910Z,1000.50
2023-04-19T09:23:13.870Z,1000.66
2023-04-19T09:24:14.196Z,1000.56
2023-04-19T09:25:41.461Z,1000.41
2023-04-19T09:26:22.978Z,1000.56
2023-04-19T09:27:15.834Z,1000.38
2023-04-19T09:28:13.818Z,1000.38
2023-04-19T09:29:13.933Z,1000.48
2023-04-19T09:30:21.016Z,1000.48
2023-04-19T09:32:15.830Z,1000.40
2023-04-19T09:33:13.893Z,1000.47
2023-04-19T09:34:13.966Z,1000.36
2023-04-19T09:35:13.796Z,1000.34
2023-04-19T09:36:14.667Z,1000.50
2023-04-19T09:37:25.016Z,1000.33
2023-04-19T09:38:15.741Z,1000.41
2023-04-19T09:39:13.882Z,1000.38
2023-04-19T09:40:13.757Z,1000.42
2023-04-19T09:41:13.713Z,1000.45
2023-04-19T09:42:14.672Z,1000.51
2023-04-19T09:46:15.477Z,1000.39
2023-04-19T09:47:13.689Z,1000.41
2023-04-19T09:48:13.686Z,1000.55
2023-04-19T09:49:23.089Z,1000.43
2023-04-19T09:50:24.021Z,1000.39
2023-04-19T09:51:15.780Z,1000.46
2023-04-19T09:52:14.662Z,1000.25
2023-04-19T09:53:13.629Z,1000.09
2023-04-19T09:54:13.616Z,1000.13
2023-04-19T09:55:24.917Z,1000.29
2023-04-19T09:56:15.618Z,1000.19
2023-04-19T09:57:13.594Z,1000.32
2023-04-19T09:58:13.582Z,1000.64
2023-04-19T09:59:20.886Z,1000.29
2023-04-19T10:00:15.594Z,1000.31
2023-04-19T10:01:15.864Z,1000.50
2023-04-19T10:02:14.602Z,1000.18
2023-04-19T10:03:13.648Z,1000.24
2023-04-19T10:04:24.119Z,1000.35
2023-04-19T10:05:20.422Z,1000.14
2023-04-19T10:06:31.732Z,1000.24
2023-04-19T10:08:14.544Z,1000.03
2023-04-19T10:09:13.632Z,1000.05
2023-04-19T10:10:20.413Z,1000.14
2023-04-19T10:11:15.486Z,999.93
2023-04-19T10:12:31.087Z,1000.02
2023-04-19T10:13:19.899Z,999.89
2023-04-19T10:14:15.468Z,1000.07
2023-04-19T10:15:13.514Z,1000.07
2023-04-19T10:16:19.602Z,1000.15
2023-04-19T10:17:15.493Z,999.98
2023-04-19T10:18:13.434Z,1000.03
2023-04-19T10:19:13.625Z,999.88
2023-04-19T10:20:13.439Z,999.93
2023-04-19T10:21:13.415Z,999.86
2023-04-19T10:22:13.403Z,999.80
2023-04-19T10:23:13.387Z,999.87
2023-04-19T10:24:13.378Z,999.97
2023-04-19T10:25:13.490Z,999.77
2023-04-19T10:26:13.366Z,999.90
2023-04-19T10:27:13.360Z,999.93
2023-04-19T10:28:13.354Z,999.94
2023-04-19T10:29:13.680Z,999.79
2023-04-19T10:30:13.361Z,999.69
2023-04-19T10:31:13.373Z,999.56
2023-04-19T10:32:13.354Z,999.64
2023-04-19T10:33:13.317Z,999.66
2023-04-19T10:34:13.300Z,999.77
2023-04-19T10:35:14.623Z,999.85
2023-04-19T10:36:13.296Z,999.62
2023-04-19T10:37:13.282Z,999.59
2023-04-19T10:38:13.317Z,999.55
2023-04-19T10:39:13.351Z,999.50
2023-04-19T10:40:13.284Z,999.62
2023-04-19T10:41:16.436Z,999.65
2023-04-19T10:42:14.248Z,999.65
2023-04-19T10:43:13.237Z,999.72
2023-04-19T10:44:13.243Z,999.64
2023-04-19T10:45:13.244Z,999.51
2023-04-19T10:46:13.253Z,999.54
2023-04-19T10:47:14.616Z,999.49
2023-04-19T10:48:13.196Z,999.57
2023-04-19T10:49:13.208Z,999.54
2023-04-19T10:50:13.266Z,999.46
2023-04-19T10:51:13.186Z,999.38
2023-04-19T10:52:13.163Z,999.41
2023-04-19T10:53:14.196Z,999.49
2023-04-19T10:54:13.151Z,999.40
2023-04-19T10:55:13.172Z,999.19
2023-04-19T10:56:13.128Z,999.41
2023-04-19T10:57:13.126Z,999.47
2023-04-19T10:58:13.123Z,999.58
2023-04-19T10:59:13.183Z,999.45
2023-04-19T11:00:13.163Z,999.42
2023-04-19T11:01:13.184Z,999.40
2023-04-19T11:02:13.148Z,999.42
2023-04-19T11:03:13.186Z,999.35
2023-04-19T11:04:13.136Z,999.36
2023-04-19T11:05:13.062Z,999.31
2023-04-19T11:06:13.084Z,999.49
2023-04-19T11:07:13.048Z,999.37
2023-04-19T11:08:13.033Z,999.24
2023-04-19T11:09:13.105Z,999.14
2023-04-19T11:10:13.221Z,999.31
2023-04-19T11:11:13.043Z,999.15
2023-04-19T11:12:13.007Z,999.10
2023-04-19T11:13:12.993Z,999.24
2023-04-19T11:14:13.050Z,999.25
2023-04-19T11:15:12.978Z,998.94
2023-04-19T11:16:13.051Z,999.20
2023-04-19T11:17:13.005Z,999.14
2023-04-19T11:18:13.365Z,999.12
2023-04-19T11:19:14.158Z,999.04
2023-04-19T11:20:12.944Z,999.02
2023-04-19T11:21:12.957Z,999.12
2023-04-19T11:22:12.928Z,998.88
2023-04-19T11:23:12.918Z,999.11
2023-04-19T11:24:12.917Z,999.40
2023-04-19T11:25:12.910Z,999.11
2023-04-19T11:26:12.936Z,999.15
2023-04-19T11:27:12.889Z,999.06
2023-04-19T11:28:12.875Z,999.09
2023-04-19T11:29:12.890Z,999.06
2023-04-19T11:30:12.879Z,999.16
2023-04-19T11:31:12.943Z,999.37
2023-04-19T11:32:12.849Z,999.32
2023-04-19T11:33:13.057Z,999.19
2023-04-19T11:34:12.846Z,999.10
2023-04-19T11:35:12.822Z,999.07
2023-04-19T11:36:12.808Z,998.99
2023-04-19T11:37:12.832Z,999.00
2023-04-19T11:38:12.787Z,999.05
2023-04-19T11:39:12.780Z,999.04
2023-04-19T11:40:12.776Z,998.96
2023-04-19T11:41:12.770Z,998.92
2023-04-19T11:42:12.791Z,998.88
2023-04-19T11:43:12.751Z,998.94
2023-04-19T11:44:12.736Z,998.79
2023-04-19T11:45:25.826Z,998.86
2023-04-19T11:46:14.791Z,999.12
2023-04-19T11:47:13.743Z,998.82
2023-04-19T11:48:12.766Z,998.70
2023-04-19T11:49:12.746Z,998.73
2023-04-19T11:50:12.696Z,998.84
2023-04-19T11:51:12.685Z,998.71
2023-04-19T11:52:12.717Z,998.74
2023-04-19T11:53:12.678Z,998.73
2023-04-19T11:54:12.675Z,998.70
2023-04-19T11:55:12.666Z,998.51
2023-04-19T11:56:12.657Z,998.67
2023-04-19T11:57:12.671Z,998.89
2023-04-19T11:58:12.645Z,998.82
2023-04-19T11:59:12.633Z,998.79
2023-04-19T12:00:12.661Z,998.74
2023-04-19T12:01:12.606Z,998.78
2023-04-19T12:02:12.667Z,998.62
2023-04-19T12:03:12.739Z,998.57
2023-04-19T12:04:12.781Z,998.70
2023-04-19T12:05:12.936Z,998.66
2023-04-19T12:06:12.600Z,998.68
2023-04-19T12:07:12.585Z,998.71
2023-04-19T12:08:12.557Z,998.62
2023-04-19T12:09:12.544Z,998.50
2023-04-19T12:10:12.536Z,998.56
2023-04-19T12:11:12.527Z,998.57
2023-04-19T12:12:12.547Z,998.58
2023-04-19T12:13:12.514Z,998.54
2023-04-19T12:14:12.504Z,998.56
2023-04-19T12:15:12.495Z,998.49
2023-04-19T12:16:12.526Z,998.51
2023-04-19T12:17:12.521Z,998.62
2023-04-19T12:18:12.496Z,998.64
2023-04-19T12:19:12.469Z,998.89